createdAt,value
2018-05-09T00:00:21.406Z,11.41
2018-05-09T00:02:49.066Z,11.23
2018-05-09T00:05:16.680Z,11.27
2018-05-09T00:07:44.321Z,11.17
2018-05-09T00:10:11.980Z,10.90
2018-05-09T00:12:39.622Z,10.88
2018-05-09T00:15:07.246Z,10.84
2018-05-09T00:17:34.879Z,10.50
2018-05-09T00:20:02.540Z,10.45
2018-05-09T00:22:30.250Z,10.46
2018-05-09T00:24:57.912Z,10.59
2018-05-09T00:27:25.495Z,10.61
2018-05-09T00:29:53.087Z,10.61
2018-05-09T00:32:20.735Z,10.77
2018-05-09T00:34:48.405Z,10.68
2018-05-09T00:37:16.411Z,10.66
2018-05-09T00:39:44.043Z,10.53
2018-05-09T00:42:11.691Z,10.59
2018-05-09T00:44:39.341Z,10.53
2018-05-09T00:47:06.927Z,10.54
2018-05-09T00:49:34.585Z,10.56
2018-05-09T00:52:02.199Z,10.68
2018-05-09T00:54:33.593Z,10.63
2018-05-09T00:57:01.284Z,10.68
2018-05-09T00:59:29.018Z,10.62
2018-05-09T01:01:57.594Z,10.82
2018-05-09T01:04:25.203Z,10.57
2018-05-09T01:06:52.912Z,10.38
2018-05-09T01:09:20.546Z,10.20
2018-05-09T01:11:48.236Z,10.29
2018-05-09T01:14:15.847Z,10.29
2018-05-09T01:16:43.602Z,10.27
2018-05-09T01:19:11.260Z,10.31
2018-05-09T01:21:38.944Z,10.35
2018-05-09T01:24:06.618Z,10.44
2018-05-09T01:26:34.300Z,10.45
2018-05-09T01:29:02.373Z,10.27
2018-05-09T01:31:30.116Z,10.20
2018-05-09T01:33:57.736Z,10.16
2018-05-09T01:36:25.396Z,10.15
2018-05-09T01:38:52.984Z,10.31
2018-05-09T01:41:20.955Z,10.23
2018-05-09T01:43:48.687Z,10.20
2018-05-09T01:46:16.285Z,10.01
2018-05-09T01:48:43.940Z,9.84
2018-05-09T01:51:11.559Z,9.82
2018-05-09T01:53:39.171Z,9.69
2018-05-09T01:56:06.812Z,9.70
2018-05-09T01:58:34.447Z,9.73
2018-05-09T02:01:02.082Z,9.83
2018-05-09T02:03:29.709Z,9.80
2018-05-09T02:05:57.355Z,9.85
2018-05-09T02:08:24.951Z,10.02
2018-05-09T02:10:52.606Z,9.86
2018-05-09T02:13:20.192Z,9.75
2018-05-09T02:15:47.850Z,9.98
2018-05-09T02:18:15.451Z,9.86
2018-05-09T02:20:43.042Z,9.85
2018-05-09T02:23:10.698Z,9.95
2018-05-09T02:25:38.342Z,9.84
2018-05-09T02:28:05.941Z,9.90
2018-05-09T02:30:33.569Z,10.04
2018-05-09T02:33:01.201Z,10.00
2018-05-09T02:35:28.849Z,10.00
2018-05-09T02:37:56.523Z,9.94
2018-05-09T02:40:24.169Z,9.91
2018-05-09T02:42:51.788Z,9.88
2018-05-09T02:45:19.507Z,9.73
2018-05-09T02:47:47.159Z,9.64
2018-05-09T02:50:14.745Z,9.59
2018-05-09T02:52:42.373Z,9.55
2018-05-09T02:55:09.986Z,9.68
2018-05-09T02:57:37.610Z,9.68
2018-05-09T03:00:05.192Z,9.42
2018-05-09T03:02:32.788Z,9.34
2018-05-09T03:05:00.468Z,9.29
2018-05-09T03:07:28.062Z,9.16
2018-05-09T03:09:55.704Z,9.37
2018-05-09T03:12:23.306Z,9.32
2018-05-09T03:14:50.995Z,9.38
2018-05-09T03:17:18.803Z,9.38
2018-05-09T03:19:46.499Z,9.30
2018-05-09T03:22:14.101Z,9.35
2018-05-09T03:24:41.728Z,9.42
2018-05-09T03:27:09.770Z,9.39
2018-05-09T03:29:37.611Z,9.35
2018-05-09T03:32:05.249Z,9.32
2018-05-09T03:34:32.902Z,9.24
2018-05-09T03:37:00.540Z,9.22
2018-05-09T03:39:28.254Z,9.14
2018-05-09T03:41:55.893Z,8.96
2018-05-09T03:44:23.478Z,8.98
2018-05-09T03:46:51.282Z,9.07
2018-05-09T03:49:18.886Z,9.23
2018-05-09T03:51:46.582Z,9.39
2018-05-09T03:54:14.397Z,9.43
2018-05-09T03:56:42.097Z,9.50
2018-05-09T03:59:09.743Z,9.56
2018-05-09T04:01:49.177Z,9.46
2018-05-09T04:04:28.427Z,9.39
2018-05-09T04:07:07.793Z,9.51
2018-05-09T04:09:56.150Z,9.52
2018-05-09T04:12:24.671Z,9.59
2018-05-09T04:14:52.592Z,9.65
2018-05-09T04:17:20.269Z,9.73
2018-05-09T04:19:47.869Z,9.81
2018-05-09T04:22:15.518Z,9.88
2018-05-09T04:24:43.257Z,9.96
2018-05-09T04:27:10.886Z,10.01
2018-05-09T04:29:38.510Z,9.98
2018-05-09T04:32:06.116Z,9.93
2018-05-09T04:34:33.804Z,9.97
2018-05-09T04:37:01.430Z,9.88
2018-05-09T04:39:29.344Z,9.97
2018-05-09T04:41:56.999Z,9.89
2018-05-09T04:44:24.661Z,9.84
2018-05-09T04:46:52.352Z,9.82
2018-05-09T04:49:19.970Z,9.93
2018-05-09T04:51:47.609Z,10.09
2018-05-09T04:54:15.243Z,10.13
2018-05-09T04:56:42.903Z,10.27
2018-05-09T04:59:10.564Z,10.13
2018-05-09T05:01:38.230Z,10.16
2018-05-09T05:04:05.930Z,10.18
2018-05-09T05:06:33.583Z,10.23
2018-05-09T05:09:01.282Z,10.21
2018-05-09T05:11:28.873Z,10.40
2018-05-09T05:13:56.740Z,10.62
2018-05-09T05:16:24.345Z,10.78
2018-05-09T05:18:52.073Z,10.92
2018-05-09T05:21:19.718Z,11.25
2018-05-09T05:23:47.314Z,11.56
2018-05-09T05:26:14.994Z,11.50
2018-05-09T05:28:42.681Z,10.99
2018-05-09T05:31:10.440Z,11.00
2018-05-09T05:33:38.046Z,10.98
2018-05-09T05:36:05.730Z,11.61
2018-05-09T05:38:33.433Z,11.87
2018-05-09T05:41:01.033Z,12.30
2018-05-09T05:43:28.694Z,12.07
2018-05-09T05:45:56.323Z,11.97
2018-05-09T05:48:23.995Z,11.88
2018-05-09T05:50:51.651Z,12.34
2018-05-09T05:53:19.315Z,12.61
2018-05-09T05:55:46.925Z,12.94
2018-05-09T05:58:14.513Z,13.25
2018-05-09T06:00:42.163Z,13.37
2018-05-09T06:03:09.795Z,13.68
2018-05-09T06:05:37.538Z,14.04
2018-05-09T06:08:05.292Z,14.28
2018-05-09T06:10:32.913Z,14.31
2018-05-09T06:13:00.550Z,14.50
2018-05-09T06:15:28.230Z,14.75
2018-05-09T06:17:55.849Z,14.67
2018-05-09T06:20:23.486Z,14.75
2018-05-09T06:22:51.174Z,15.01
2018-05-09T06:25:18.795Z,15.14
2018-05-09T06:27:46.415Z,14.97
2018-05-09T06:30:14.071Z,14.79
2018-05-09T06:32:41.791Z,14.80
2018-05-09T06:35:09.426Z,14.79
2018-05-09T06:37:37.112Z,14.55
2018-05-09T06:40:04.794Z,14.43
2018-05-09T06:42:32.412Z,14.46
2018-05-09T06:45:00.019Z,14.58
2018-05-09T06:47:27.706Z,14.78
2018-05-09T06:49:55.505Z,15.13
2018-05-09T06:52:23.140Z,15.36
2018-05-09T06:54:50.726Z,15.43
2018-05-09T06:57:18.382Z,15.24
2018-05-09T06:59:46.316Z,15.05
2018-05-09T07:02:13.980Z,16.02
2018-05-09T07:04:41.588Z,15.35
2018-05-09T07:07:09.268Z,15.68
2018-05-09T07:09:36.928Z,15.73
2018-05-09T07:12:04.658Z,15.46
2018-05-09T07:14:32.241Z,15.30
2018-05-09T07:16:59.905Z,15.33
2018-05-09T07:19:27.531Z,16.21
2018-05-09T07:21:55.131Z,16.40
2018-05-09T07:24:22.763Z,16.76
2018-05-09T07:26:50.352Z,17.06
2018-05-09T07:29:18.068Z,17.27
2018-05-09T07:31:45.906Z,17.56
2018-05-09T07:34:13.570Z,17.41
2018-05-09T07:36:41.181Z,16.87
2018-05-09T07:39:08.836Z,16.25
2018-05-09T07:41:36.427Z,15.69
2018-05-09T07:44:04.106Z,15.94
2018-05-09T07:46:31.757Z,16.07
2018-05-09T07:48:59.444Z,15.63
2018-05-09T07:51:28.247Z,15.40
2018-05-09T07:53:55.915Z,15.50
2018-05-09T07:56:23.593Z,15.42
2018-05-09T07:58:51.249Z,15.41
2018-05-09T08:01:18.847Z,15.38
2018-05-09T08:03:46.476Z,15.51
2018-05-09T08:06:14.138Z,15.58
2018-05-09T08:08:41.757Z,15.56
2018-05-09T08:11:09.510Z,15.92
2018-05-09T08:13:37.224Z,16.46
2018-05-09T08:16:04.900Z,16.68
2018-05-09T08:18:32.498Z,16.93
2018-05-09T08:21:00.118Z,16.41
2018-05-09T08:23:27.756Z,16.68
2018-05-09T08:25:55.431Z,16.59
2018-05-09T08:28:23.129Z,17.41
2018-05-09T08:30:50.787Z,17.43
2018-05-09T08:33:18.452Z,17.28
2018-05-09T08:35:46.699Z,17.10
2018-05-09T08:38:14.383Z,17.34
2018-05-09T08:40:42.016Z,16.99
2018-05-09T08:43:09.678Z,17.49
2018-05-09T08:45:37.392Z,17.12
2018-05-09T08:48:05.040Z,17.07
2018-05-09T08:50:32.745Z,17.17
2018-05-09T08:53:00.328Z,17.31
2018-05-09T08:55:27.996Z,17.64
2018-05-09T08:57:55.672Z,17.69
2018-05-09T09:00:23.260Z,17.79
2018-05-09T09:02:50.929Z,17.48
2018-05-09T09:05:18.546Z,17.77
2018-05-09T09:07:46.192Z,17.89
2018-05-09T09:10:13.789Z,17.77
2018-05-09T09:12:41.537Z,18.05
2018-05-09T09:15:09.148Z,17.65
2018-05-09T09:17:36.819Z,17.41
2018-05-09T09:20:04.546Z,17.33
2018-05-09T09:22:32.195Z,17.29
2018-05-09T09:25:00.641Z,17.07
2018-05-09T09:27:28.328Z,17.35
2018-05-09T09:29:56.279Z,17.39
2018-05-09T09:32:23.982Z,17.61
2018-05-09T09:34:51.657Z,17.35
2018-05-09T09:37:19.303Z,16.95
2018-05-09T09:39:46.934Z,17.46
2018-05-09T09:42:14.897Z,17.51
2018-05-09T09:47:16.342Z,17.23
2018-05-09T09:49:43.986Z,17.31
2018-05-09T09:52:11.796Z,17.15
2018-05-09T09:54:39.392Z,17.24
2018-05-09T09:57:07.022Z,17.51
2018-05-09T09:59:35.340Z,17.49
2018-05-09T10:02:02.985Z,17.46
2018-05-09T10:04:30.638Z,17.07
2018-05-09T10:06:58.314Z,17.14
2018-05-09T10:09:26.837Z,17.51
2018-05-09T10:11:54.488Z,17.57
2018-05-09T10:14:22.167Z,17.74
2018-05-09T10:16:49.780Z,17.79
2018-05-09T10:19:17.608Z,17.82
2018-05-09T10:21:45.201Z,17.85
2018-05-09T10:24:12.839Z,17.81
2018-05-09T10:26:40.525Z,17.86
2018-05-09T10:29:08.127Z,17.99
2018-05-09T10:31:35.841Z,18.12
2018-05-09T10:34:03.493Z,18.31
2018-05-09T10:36:31.141Z,18.48
2018-05-09T10:38:58.743Z,18.38
2018-05-09T10:41:26.457Z,18.72
2018-05-09T10:43:54.045Z,18.95
2018-05-09T10:46:21.695Z,19.26
2018-05-09T10:48:49.363Z,19.44
2018-05-09T10:51:17.040Z,19.84
2018-05-09T10:53:44.673Z,20.31
2018-05-09T10:56:12.351Z,20.27
2018-05-09T10:58:40.040Z,20.62
2018-05-09T11:01:07.717Z,20.98
2018-05-09T11:03:35.875Z,21.12
2018-05-09T11:06:03.540Z,21.40
2018-05-09T11:08:31.199Z,21.41
2018-05-09T11:10:59.346Z,21.28
2018-05-09T11:13:27.008Z,21.34
2018-05-09T11:15:54.965Z,21.18
2018-05-09T11:18:22.948Z,20.77
2018-05-09T11:20:50.667Z,20.79
2018-05-09T11:23:18.295Z,21.39
2018-05-09T11:25:45.977Z,21.73
2018-05-09T11:28:13.650Z,21.72
2018-05-09T11:30:41.308Z,21.74
2018-05-09T11:33:08.957Z,21.93
2018-05-09T11:35:36.623Z,20.92
2018-05-09T11:38:04.243Z,21.31
2018-05-09T11:40:31.891Z,20.92
2018-05-09T11:42:59.569Z,20.98
2018-05-09T11:45:27.351Z,20.36
2018-05-09T11:47:55.120Z,20.40
2018-05-09T11:50:22.736Z,20.12
2018-05-09T11:52:50.457Z,19.85
2018-05-09T11:55:18.109Z,19.79
2018-05-09T11:57:45.787Z,20.10
2018-05-09T12:00:13.415Z,19.86
2018-05-09T12:02:41.098Z,19.80
2018-05-09T12:05:08.767Z,19.67
2018-05-09T12:07:36.413Z,19.83
2018-05-09T12:10:04.178Z,19.84
2018-05-09T12:12:31.784Z,19.87
2018-05-09T12:15:00.337Z,19.69
2018-05-09T12:17:27.941Z,19.76
2018-05-09T12:19:56.477Z,19.58
2018-05-09T12:22:24.182Z,19.70
2018-05-09T12:24:51.865Z,19.51
2018-05-09T12:27:19.662Z,19.69
2018-05-09T12:29:47.324Z,19.58
2018-05-09T12:32:14.978Z,19.48
2018-05-09T12:34:42.581Z,19.52
2018-05-09T12:37:10.211Z,19.43
2018-05-09T12:39:37.904Z,19.41
2018-05-09T12:42:05.520Z,19.03
2018-05-09T12:44:34.059Z,18.97
2018-05-09T12:47:01.935Z,19.03
2018-05-09T12:49:30.192Z,19.32
2018-05-09T12:51:58.214Z,19.44
2018-05-09T12:54:26.270Z,19.53
2018-05-09T12:56:54.152Z,19.61
2018-05-09T12:59:21.966Z,19.67
2018-05-09T13:01:49.875Z,19.74
2018-05-09T13:04:17.829Z,19.61
2018-05-09T13:06:45.920Z,19.50
2018-05-09T13:09:15.011Z,19.47
2018-05-09T13:11:42.905Z,19.42
2018-05-09T13:14:10.631Z,19.42
2018-05-09T13:16:39.017Z,19.44
2018-05-09T13:19:07.647Z,19.50
2018-05-09T13:21:36.218Z,19.57
2018-05-09T13:24:03.881Z,19.41
2018-05-09T13:26:31.732Z,19.60
2018-05-09T13:28:59.954Z,19.71
2018-05-09T13:31:28.217Z,19.42
2018-05-09T13:33:56.559Z,19.54
2018-05-09T13:36:24.383Z,19.69
2018-05-09T13:38:52.180Z,19.77
2018-05-09T13:41:19.975Z,19.70
2018-05-09T13:43:47.636Z,19.76
2018-05-09T13:46:15.506Z,19.81
2018-05-09T13:48:43.371Z,20.02
2018-05-09T13:51:11.032Z,20.36
2018-05-09T13:53:38.699Z,20.89
2018-05-09T13:56:06.365Z,21.12
2018-05-09T13:58:34.024Z,21.35
2018-05-09T14:01:01.647Z,20.95
2018-05-09T14:03:29.526Z,21.18
2018-05-09T14:05:57.199Z,21.06
2018-05-09T14:08:24.853Z,21.05
2018-05-09T14:10:52.569Z,21.10
2018-05-09T14:13:20.420Z,21.10
2018-05-09T14:15:48.139Z,20.90
2018-05-09T14:18:18.606Z,20.91
2018-05-09T14:20:46.276Z,20.64
2018-05-09T14:23:14.266Z,20.83
2018-05-09T14:25:42.538Z,20.81
2018-05-09T14:28:10.229Z,20.34
2018-05-09T14:30:37.937Z,20.55
2018-05-09T14:33:05.601Z,20.76
2018-05-09T14:35:34.275Z,20.79
2018-05-09T14:38:02.167Z,20.84
2018-05-09T14:40:29.822Z,20.78
2018-05-09T14:42:57.474Z,20.52
2018-05-09T14:45:25.192Z,20.96
2018-05-09T14:47:52.843Z,21.16
2018-05-09T14:50:20.468Z,21.24
2018-05-09T14:52:48.136Z,21.17
2018-05-09T14:55:15.742Z,21.12
2018-05-09T14:57:43.396Z,21.35
2018-05-09T15:00:11.097Z,21.42
2018-05-09T15:02:38.743Z,21.26
2018-05-09T15:05:06.986Z,21.33
2018-05-09T15:07:34.634Z,21.25
2018-05-09T15:10:02.271Z,21.33
2018-05-09T15:12:29.960Z,21.39
2018-05-09T15:14:57.666Z,21.70
2018-05-09T15:17:25.270Z,21.66
2018-05-09T15:19:52.933Z,21.68
2018-05-09T15:22:20.566Z,21.39
2018-05-09T15:24:48.272Z,21.44
2018-05-09T15:27:15.903Z,21.33
2018-05-09T15:29:43.661Z,21.26
2018-05-09T15:32:11.455Z,21.53
2018-05-09T15:34:39.160Z,21.46
2018-05-09T15:37:06.877Z,21.23
2018-05-09T15:39:34.551Z,21.26
2018-05-09T15:42:02.217Z,21.31
2018-05-09T15:44:29.827Z,21.25
2018-05-09T15:46:57.489Z,21.50
2018-05-09T15:49:25.127Z,21.47
2018-05-09T15:51:52.839Z,21.10
2018-05-09T15:54:20.527Z,21.16
2018-05-09T15:56:48.134Z,20.96
2018-05-09T15:59:15.859Z,20.57
2018-05-09T16:01:43.526Z,20.54
2018-05-09T16:04:11.383Z,20.45
2018-05-09T16:06:39.055Z,20.55
2018-05-09T16:09:06.695Z,20.31
2018-05-09T16:11:34.405Z,20.29
2018-05-09T16:14:02.050Z,20.37
2018-05-09T16:16:29.800Z,20.36
2018-05-09T16:18:57.551Z,20.33
2018-05-09T16:21:25.245Z,20.26
2018-05-09T16:23:52.959Z,20.27
2018-05-09T16:26:20.647Z,20.19
2018-05-09T16:28:48.487Z,20.07
2018-05-09T16:31:17.428Z,20.11
2018-05-09T16:33:45.193Z,19.92
2018-05-09T16:36:14.050Z,19.66
2018-05-09T16:38:41.827Z,19.48
2018-05-09T16:41:10.319Z,19.29
2018-05-09T16:43:38.001Z,19.35
2018-05-09T16:46:06.562Z,19.12
2018-05-09T16:48:34.350Z,19.22
2018-05-09T16:51:02.061Z,19.06
2018-05-09T16:53:29.690Z,19.01
2018-05-09T16:55:57.400Z,18.88
2018-05-09T16:58:25.118Z,18.66
2018-05-09T17:00:52.962Z,18.50
2018-05-09T17:03:20.645Z,18.49
2018-05-09T17:05:48.566Z,18.25
2018-05-09T17:08:16.631Z,17.94
2018-05-09T17:10:44.261Z,17.88
2018-05-09T17:13:11.974Z,17.75
2018-05-09T17:15:39.668Z,17.67
2018-05-09T17:18:07.333Z,17.53
2018-05-09T17:20:34.985Z,17.28
2018-05-09T17:23:02.706Z,17.35
2018-05-09T17:25:30.404Z,17.31
2018-05-09T17:27:58.089Z,17.26
2018-05-09T17:30:25.795Z,17.21
2018-05-09T17:32:53.451Z,17.20
2018-05-09T17:35:21.042Z,17.12
2018-05-09T17:37:48.691Z,17.10
2018-05-09T17:40:16.356Z,17.02
2018-05-09T17:42:44.302Z,17.02
2018-05-09T17:45:11.929Z,16.99
2018-05-09T17:47:39.626Z,16.98
2018-05-09T17:50:07.401Z,17.05
2018-05-09T17:52:35.147Z,16.89
2018-05-09T17:55:02.861Z,16.75
2018-05-09T17:57:30.542Z,16.62
2018-05-09T17:59:59.336Z,16.61
2018-05-09T18:02:26.993Z,16.50
2018-05-09T18:04:54.668Z,16.40
2018-05-09T18:07:22.317Z,16.28
2018-05-09T18:09:50.108Z,16.18
2018-05-09T18:12:17.764Z,16.19
2018-05-09T18:14:45.476Z,16.27
2018-05-09T18:17:15.054Z,16.27
2018-05-09T18:19:42.697Z,16.15
2018-05-09T18:22:10.503Z,15.93
2018-05-09T18:24:39.431Z,15.82
2018-05-09T18:27:07.119Z,15.85
2018-05-09T18:29:34.842Z,15.85
2018-05-09T18:32:02.509Z,15.79
2018-05-09T18:34:30.402Z,15.79
2018-05-09T18:36:58.975Z,15.67
2018-05-09T18:39:28.994Z,15.50
2018-05-09T18:41:57.601Z,15.40
2018-05-09T18:44:26.205Z,15.37
2018-05-09T18:46:55.339Z,15.12
2018-05-09T18:49:23.989Z,14.98
2018-05-09T18:51:52.586Z,15.05
2018-05-09T18:54:21.873Z,14.97
2018-05-09T18:56:51.111Z,14.96
2018-05-09T18:59:19.352Z,14.83
2018-05-09T19:01:47.455Z,14.75
2018-05-09T19:04:15.515Z,14.92
2018-05-09T19:06:44.731Z,14.92
2018-05-09T19:09:15.447Z,14.92
2018-05-09T19:11:43.620Z,15.04
2018-05-09T19:14:11.408Z,15.12
2018-05-09T19:16:39.350Z,15.04
2018-05-09T19:19:06.957Z,14.97
2018-05-09T19:21:34.788Z,14.84
2018-05-09T19:24:02.481Z,14.77
2018-05-09T19:26:30.833Z,14.67
2018-05-09T19:28:58.492Z,14.53
2018-05-09T19:31:26.747Z,14.67
2018-05-09T19:33:54.422Z,14.65
2018-05-09T19:36:22.142Z,14.55
2018-05-09T19:38:50.384Z,14.47
2018-05-09T19:41:19.071Z,14.41
2018-05-09T19:43:46.855Z,14.34
2018-05-09T19:46:14.748Z,14.37
2018-05-09T19:48:42.512Z,14.26
2018-05-09T19:51:10.386Z,14.28
2018-05-09T19:53:39.205Z,14.29
2018-05-09T19:56:07.092Z,14.23
2018-05-09T19:58:34.932Z,14.19
2018-05-09T20:01:02.902Z,14.10
2018-05-09T20:03:33.503Z,13.92
2018-05-09T20:06:01.544Z,14.00
2018-05-09T20:08:30.902Z,13.87
2018-05-09T20:10:58.893Z,13.67
2018-05-09T20:13:27.649Z,13.72
2018-05-09T20:15:55.424Z,13.53
2018-05-09T20:18:23.113Z,13.52
2018-05-09T20:20:50.811Z,13.48
2018-05-09T20:23:18.607Z,13.44
2018-05-09T20:25:46.223Z,13.36
2018-05-09T20:28:13.875Z,13.34
2018-05-09T20:30:46.916Z,13.23
2018-05-09T20:33:14.685Z,13.30
2018-05-09T20:35:42.344Z,13.12
2018-05-09T20:38:09.959Z,13.20
2018-05-09T20:40:37.632Z,13.13
2018-05-09T20:43:05.367Z,13.26
2018-05-09T20:45:32.998Z,13.22
2018-05-09T20:48:00.664Z,13.08
2018-05-09T20:50:28.332Z,13.09
2018-05-09T20:52:55.964Z,13.02
2018-05-09T20:55:28.587Z,12.97
2018-05-09T20:57:56.265Z,12.89
2018-05-09T21:00:23.914Z,12.94
2018-05-09T21:02:51.516Z,12.99
2018-05-09T21:05:19.231Z,12.90
2018-05-09T21:07:56.799Z,12.78
2018-05-09T21:10:25.553Z,12.67
2018-05-09T21:12:53.328Z,12.81
2018-05-09T21:15:21.065Z,12.89
2018-05-09T21:17:48.647Z,12.91
2018-05-09T21:20:16.387Z,12.84
2018-05-09T21:22:44.025Z,12.72
2018-05-09T21:25:11.661Z,12.69
2018-05-09T21:27:39.385Z,12.84
2018-05-09T21:30:07.977Z,12.87
2018-05-09T21:32:36.830Z,12.81
2018-05-09T21:35:04.482Z,12.89
2018-05-09T21:37:32.171Z,12.82
2018-05-09T21:39:59.807Z,12.79
2018-05-09T21:42:27.384Z,12.75
2018-05-09T21:44:55.123Z,12.64
2018-05-09T21:47:22.806Z,12.58
2018-05-09T21:49:50.598Z,12.55
2018-05-09T21:52:18.250Z,12.53
2018-05-09T21:54:45.859Z,12.50
2018-05-09T21:57:13.511Z,12.43
2018-05-09T21:59:41.143Z,12.36
2018-05-09T22:02:08.788Z,12.22
2018-05-09T22:04:36.426Z,12.16
2018-05-09T22:07:04.076Z,12.11
2018-05-09T22:09:31.717Z,12.09
2018-05-09T22:11:59.327Z,12.05
2018-05-09T22:14:26.962Z,12.00
2018-05-09T22:16:54.691Z,11.90
2018-05-09T22:19:22.332Z,11.96
2018-05-09T22:21:49.980Z,12.03
2018-05-09T22:24:17.619Z,11.97
2018-05-09T22:26:45.292Z,11.62
2018-05-09T22:29:12.990Z,11.56
2018-05-09T22:31:40.589Z,11.69
2018-05-09T22:34:08.227Z,11.53
2018-05-09T22:36:35.924Z,11.48
2018-05-09T22:39:03.713Z,11.50
2018-05-09T22:41:32.086Z,11.60
2018-05-09T22:43:59.749Z,11.53
2018-05-09T22:46:27.376Z,11.47
2018-05-09T22:48:54.990Z,11.61
2018-05-09T22:51:22.661Z,11.28
2018-05-09T22:53:50.247Z,11.46
2018-05-09T22:56:17.881Z,11.41
2018-05-09T22:58:45.553Z,11.40
2018-05-09T23:01:13.272Z,11.43
2018-05-09T23:03:40.941Z,11.57
2018-05-09T23:06:08.663Z,11.49
2018-05-09T23:08:36.361Z,11.43
2018-05-09T23:11:03.987Z,11.50
2018-05-09T23:13:31.573Z,11.49
2018-05-09T23:15:59.222Z,11.51
2018-05-09T23:18:26.901Z,11.38
2018-05-09T23:20:54.588Z,11.33
2018-05-09T23:23:22.235Z,11.30
2018-05-09T23:25:50.095Z,11.18
2018-05-09T23:28:17.756Z,11.21
2018-05-09T23:30:45.562Z,11.16
2018-05-09T23:33:13.162Z,11.18
2018-05-09T23:35:40.827Z,11.03
2018-05-09T23:38:08.465Z,10.87
2018-05-09T23:40:36.128Z,10.90
2018-05-09T23:43:03.830Z,10.98
2018-05-09T23:45:31.493Z,10.97
2018-05-09T23:47:59.146Z,10.81
2018-05-09T23:50:26.807Z,10.74
2018-05-09T23:52:54.477Z,10.85
2018-05-09T23:55:22.124Z,10.88
2018-05-09T23:57:49.859Z,10.93
